KNYG/NYG METAR and TAF weather

Enter ICAO airport designator
Station Type Date Time Source
KNYG METAR 2022/08/13 12:56 UTC NOAA

KNYG 131256Z AUTO 01009KT 10SM CLR 22/11 A3017 RMK AO2 SLP216 T02220106


Station Type Date Time Source
KNYG Decoded METAR 2022/08/13 12:56 UTC NOAA

QUANTICO MARINE CORPS AIRFAC, VA, United States (KNYG) 38-30N 077-18W 3M
Aug 13, 2022 - 08:56 AM EDT / 2022.08.13 1256 UTC
Wind: from the N (010 degrees) at 10 MPH (9 KT):0
Visibility: 10 mile(s):0
Sky conditions: clear
Temperature: 72.0 F (22.2 C)
Dew Point: 51.1 F (10.6 C)
Relative Humidity: 47%
Pressure (altimeter): 30.17 in. Hg (1021 hPa)
ob: KNYG 131256Z AUTO 01009KT 10SM CLR 22/11 A3017 RMK AO2 SLP216 T02220106
cycle: 13

Station Type Date Time Source
KNYG TAF 2022/08/12 21:44 UTC NOAA

TAF KNYG 1221/1321 34009KT 9999 SKC QNH3001INS
BECMG 1318/1320 19009KT 9999 SKC QNH3010INS T29/1221Z T15/1311Z LAST NO AMENDS UNTIL 0915

Example: see airport list